Yellowstone Regional Airport
KCOD : rendu visible

Aérodrome :











RETROUVEZ-NOUS SUR...

 
LOGIN :

S'inscrire | Disclaimer

   EN    FR    IT 

 









Légende :    VFR   VFR Marginal   IFR   IFR Intensif   IFR Très Intensif
Visi : 
Plafond : 
>= 8 km
>= 3000ft
5 à 8 km
1000 à 3000 ft
1500m à 5 km
500 à 1000 ft
800 à 1500m
200 à 500 ft
< 800m
< 200 ft
Symboles :   Orages  Brouillard  Fortes neiges  Fortes précipitations  Vent > 20 kt






- Altitude de l'aérodrome : 5102 ft


KCOD - Yellowstone Regional

DERNIER METAR :
  • 100756Z AUTO 16007KT 10SM OVC090 M07/M08 A3005 RMK AO2 SLP223 T10671083 FZRANO

METARs EXPIRÉS :
  • 100656Z AUTO 04004KT 10SM OVC090 M07/M08 A3005 RMK AO2 SLP223 T10671083 400331133 FZRANO
  • 100556Z AUTO 05005KT 10SM BKN085 OVC100 M06/M08 A3004 RMK AO2 SLP224 T10611083 11050 21067 53008 FZRANO

TAF KCOD
Valide du 10 à 06h jusqu'au 11 à 06h UTC


100520Z 1006/1106 VRB04KT P6SM FEW035 OVC060
FM101500 25008KT P6SM SCT060
FM101900 26011KT P6SM SCT080 AMD LTD TO CLD VIS AND WIND



MET'MAP, la Météo Aéronautique d'un coup d'oeil ! - Copyright ORBIFLY Décembre 2007 - Disclaimer

ORBIFLY MET'MAP TEAM :

Programmation & Développement : Alexandra Zaïnal
Sur une idée originale de : Baudouin d'Aumeries
Assistance à la programmation : Marc-Olivier Méhu
Soutien technique & logistique : Manuel Goepfert

Contact : metmap@orbifly.com




SOURCES & CREDITS :

   NOAA       Earth
Advisory